Time;durP1;ratioP1;P1;durP2;ratioP2;P2;SDS_P1;SDS_P2;PMS_P1;PMS_P2;Temp;Humidity;BMP_temperature;BMP_pressure;BME280_temperature;BME280_humidity;BME280_pressure;Samples;Min_cycle;Max_cycle;Signal;HPM_P1;HPM_P2
2022/10/16 00:01:24;;;;;;;29.15;18.40;;;11.60;99.90;;;;;;5072971;28;20046;-55
2022/10/16 00:03:50;;;;;;;33.03;20.08;;;11.60;99.90;;;;;;5072664;28;20044;-56
2022/10/16 00:06:18;;;;;;;35.10;22.95;;;11.60;99.90;;;;;;5072059;28;20025;-57
2022/10/16 00:08:44;;;;;;;34.58;21.95;;;11.60;99.90;;;;;;5072324;28;20025;-51
2022/10/16 00:11:13;;;;;;;33.63;20.60;;;11.60;99.90;;;;;;5072722;28;20055;-55
2022/10/16 00:13:41;;;;;;;34.75;23.15;;;11.50;99.90;;;;;;5071645;28;20111;-54
2022/10/16 00:16:08;;;;;;;42.88;27.10;;;11.50;99.90;;;;;;5072400;28;20028;-54
2022/10/16 00:18:34;;;;;;;38.67;24.92;;;11.50;99.90;;;;;;5072126;28;20024;-56
2022/10/16 00:21:08;;;;;;;27.40;15.57;;;11.50;99.90;;;;;;5071850;28;20046;-52
2022/10/16 00:23:35;;;;;;;31.50;19.58;;;11.50;99.90;;;;;;5072011;28;20106;-56
2022/10/16 00:26:05;;;;;;;30.65;18.48;;;11.40;99.90;;;;;;5071806;28;20028;-56
2022/10/16 00:28:31;;;;;;;31.88;18.75;;;11.40;99.90;;;;;;5071790;28;20685;-57
2022/10/16 00:30:57;;;;;;;32.53;18.73;;;11.40;99.90;;;;;;5071123;28;20078;-57
2022/10/16 00:33:23;;;;;;;32.80;19.40;;;11.40;99.90;;;;;;5071628;28;20016;-54
2022/10/16 00:35:49;;;;;;;31.17;18.33;;;11.40;99.90;;;;;;5071929;28;20035;-56
2022/10/16 00:38:16;;;;;;;36.42;22.13;;;11.40;99.90;;;;;;5072060;28;20017;-57
2022/10/16 00:40:41;;;;;;;38.45;23.35;;;11.40;99.90;;;;;;5071237;28;20029;-56
2022/10/16 00:43:33;;;;;;;40.40;23.23;;;11.40;99.90;;;;;;5072150;28;20047;-58
2022/10/16 00:46:00;;;;;;;30.15;17.88;;;11.40;99.90;;;;;;5072217;28;20042;-56
2022/10/16 00:48:26;;;;;;;19.70;12.20;;;11.40;99.90;;;;;;5071268;28;20111;-54
2022/10/16 00:50:53;;;;;;;17.55;10.02;;;11.40;99.90;;;;;;5071632;28;20103;-56
2022/10/16 00:53:19;;;;;;;16.13;9.10;;;11.40;99.90;;;;;;5072057;28;20503;-56
2022/10/16 00:55:45;;;;;;;11.88;5.32;;;11.40;99.90;;;;;;5070688;28;20056;-57
2022/10/16 00:58:12;;;;;;;9.77;5.00;;;11.40;99.90;;;;;;5069530;28;20527;-54
2022/10/16 01:00:37;;;;;;;6.85;4.72;;;11.40;99.90;;;;;;5071231;28;20017;-60
2022/10/16 01:03:21;;;;;;;8.35;4.13;;;11.40;99.90;;;;;;5069944;28;20393;-60
2022/10/16 01:05:55;;;;;;;7.75;4.07;;;11.40;99.90;;;;;;5071224;28;20120;-62
2022/10/16 01:09:12;;;;;;;6.45;3.83;;;11.40;99.90;;;;;;5071099;28;20023;-57
2022/10/16 01:12:20;;;;;;;9.00;4.63;;;11.30;99.90;;;;;;5053357;28;20032;-58
2022/10/16 01:14:55;;;;;;;10.15;5.75;;;11.30;99.90;;;;;;5070838;28;20040;-52
2022/10/16 01:17:41;;;;;;;13.40;6.30;;;11.30;99.90;;;;;;5070938;28;20035;-60
2022/10/16 01:20:26;;;;;;;10.05;5.10;;;11.30;99.90;;;;;;5070386;28;20044;-52
2022/10/16 01:23:03;;;;;;;8.68;4.88;;;11.30;99.90;;;;;;5070293;28;20034;-59
2022/10/16 01:25:56;;;;;;;8.50;4.68;;;11.30;99.90;;;;;;5070874;28;20040;-58
2022/10/16 01:28:32;;;;;;;8.55;4.90;;;11.30;99.90;;;;;;5071196;28;20496;-55
2022/10/16 01:30:59;;;;;;;11.35;6.88;;;11.30;99.90;;;;;;5070495;28;20025;-54
2022/10/16 01:33:38;;;;;;;14.02;7.32;;;11.30;99.90;;;;;;5071103;28;20540;-54
2022/10/16 01:36:21;;;;;;;17.85;10.02;;;11.40;99.90;;;;;;5070543;28;20426;-55
2022/10/16 01:38:52;;;;;;;19.45;10.50;;;11.40;99.90;;;;;;5070533;28;20063;-57
2022/10/16 01:41:26;;;;;;;22.33;13.30;;;11.40;99.90;;;;;;5071131;28;20055;-55
2022/10/16 01:43:57;;;;;;;22.90;13.77;;;11.40;99.90;;;;;;5072725;28;20044;-62
2022/10/16 01:46:24;;;;;;;13.38;8.95;;;11.40;99.90;;;;;;5073802;28;20028;-64
2022/10/16 01:48:52;;;;;;;9.48;6.07;;;11.30;99.90;;;;;;5070986;28;20020;-66
2022/10/16 01:51:19;;;;;;;8.60;5.20;;;11.40;99.90;;;;;;5070636;28;20024;-67
2022/10/16 01:53:50;;;;;;;9.50;5.22;;;11.40;99.90;;;;;;5070774;28;20020;-56
2022/10/16 01:56:17;;;;;;;9.48;4.85;;;11.40;99.90;;;;;;5071040;28;20036;-58
2022/10/16 01:58:52;;;;;;;9.32;5.05;;;11.40;99.90;;;;;;5069736;28;20371;-62
2022/10/16 02:01:20;;;;;;;8.82;5.65;;;11.50;99.90;;;;;;5069912;28;20488;-56
2022/10/16 02:03:49;;;;;;;10.60;6.13;;;11.50;99.90;;;;;;5070439;28;20031;-55
2022/10/16 02:06:15;;;;;;;14.15;7.70;;;11.50;99.90;;;;;;5070322;28;20086;-64
2022/10/16 02:08:43;;;;;;;12.15;6.75;;;11.50;99.90;;;;;;5070299;28;20025;-53
2022/10/16 02:11:10;;;;;;;13.77;7.30;;;11.60;99.90;;;;;;5070619;28;20060;-54
2022/10/16 02:13:49;;;;;;;17.92;10.57;;;11.60;99.90;;;;;;5069829;28;20032;-63
2022/10/16 02:16:15;;;;;;;24.13;15.25;;;11.60;99.90;;;;;;5070905;28;20052;-56
2022/10/16 02:18:43;;;;;;;18.02;12.02;;;11.60;99.90;;;;;;5069718;28;20055;-56
2022/10/16 02:21:29;;;;;;;15.57;9.07;;;11.60;99.90;;;;;;5070393;28;20508;-56
2022/10/16 02:24:05;;;;;;;12.75;7.97;;;11.60;99.90;;;;;;5070611;28;20036;-60
2022/10/16 02:26:35;;;;;;;20.05;12.10;;;11.60;99.90;;;;;;5069706;28;20492;-61
2022/10/16 02:29:06;;;;;;;26.45;15.73;;;11.60;99.90;;;;;;5069392;28;20017;-66
2022/10/16 02:31:34;;;;;;;;;;;11.60;99.90;;;;;;5070782;28;20032;-56
2022/10/16 02:34:03;;;;;;;25.88;15.43;;;11.70;99.90;;;;;;5070116;28;19908;-65
2022/10/16 02:36:29;;;;;;;22.65;13.73;;;11.70;99.90;;;;;;5070192;28;20079;-55
2022/10/16 02:38:55;;;;;;;34.53;20.02;;;11.80;99.90;;;;;;5070259;28;20486;-55
2022/10/16 02:41:22;;;;;;;35.55;20.40;;;11.80;99.90;;;;;;5070116;28;20016;-53
2022/10/16 02:43:49;;;;;;;33.28;19.27;;;11.80;99.90;;;;;;5069864;28;20086;-56
2022/10/16 02:46:15;;;;;;;32.83;18.65;;;11.80;99.90;;;;;;5069107;28;20028;-54
2022/10/16 02:48:40;;;;;;;31.17;18.10;;;11.80;99.90;;;;;;5069151;28;20021;-57
2022/10/16 02:51:06;;;;;;;32.15;18.25;;;11.70;99.90;;;;;;5069260;28;20587;-60
2022/10/16 02:53:31;;;;;;;29.30;18.50;;;11.70;99.90;;;;;;5067794;28;20017;-60
2022/10/16 02:55:57;;;;;;;30.08;17.33;;;11.60;99.90;;;;;;5070534;28;20029;-59
2022/10/16 02:58:23;;;;;;;33.85;20.35;;;11.60;99.90;;;;;;5070496;28;20048;-55
2022/10/16 03:00:48;;;;;;;29.35;16.38;;;11.60;99.90;;;;;;5067961;28;20025;-52
2022/10/16 03:03:14;;;;;;;23.70;15.18;;;11.60;99.90;;;;;;5070199;28;20025;-54
2022/10/16 03:05:39;;;;;;;17.88;11.25;;;11.60;99.90;;;;;;5069647;28;20086;-53
2022/10/16 03:08:05;;;;;;;11.85;7.05;;;11.60;99.90;;;;;;5069518;28;20012;-51
2022/10/16 03:10:31;;;;;;;14.43;8.88;;;11.50;99.90;;;;;;5069661;28;20114;-53
2022/10/16 03:12:56;;;;;;;13.70;8.60;;;11.50;99.90;;;;;;5068882;28;20389;-56
2022/10/16 03:15:22;;;;;;;15.45;9.43;;;11.50;99.90;;;;;;5069436;28;20074;-59
2022/10/16 03:17:47;;;;;;;13.00;8.02;;;11.50;99.90;;;;;;5069680;28;20036;-50
2022/10/16 03:20:13;;;;;;;11.20;5.78;;;11.50;99.90;;;;;;5070024;28;20594;-53
2022/10/16 03:22:39;;;;;;;8.23;4.85;;;11.50;99.90;;;;;;5070871;28;20040;-52
2022/10/16 03:25:05;;;;;;;8.85;5.03;;;11.60;99.90;;;;;;5073557;28;20082;-55
2022/10/16 03:27:31;;;;;;;10.00;5.03;;;11.60;99.90;;;;;;5073319;28;20024;-56
2022/10/16 03:29:56;;;;;;;9.05;4.93;;;11.60;99.90;;;;;;5072982;28;20099;-56
2022/10/16 03:32:22;;;;;;;18.63;9.98;;;11.70;99.90;;;;;;5073436;28;20017;-52
2022/10/16 03:34:48;;;;;;;22.10;11.90;;;11.70;99.90;;;;;;5070448;28;20028;-55
2022/10/16 03:37:13;;;;;;;15.63;9.77;;;11.70;99.90;;;;;;5071968;28;20048;-52
2022/10/16 03:39:39;;;;;;;22.63;12.38;;;11.70;99.90;;;;;;5072921;28;20021;-55
2022/10/16 03:42:04;;;;;;;24.52;15.85;;;11.60;99.90;;;;;;5072632;28;20016;-57
2022/10/16 03:44:30;;;;;;;27.08;17.17;;;11.60;99.90;;;;;;5072840;28;20033;-57
2022/10/16 03:46:56;;;;;;;23.45;14.35;;;11.60;99.90;;;;;;5073367;28;20024;-57
2022/10/16 03:49:21;;;;;;;21.52;13.73;;;11.50;99.90;;;;;;5072521;28;20024;-57
2022/10/16 03:51:47;;;;;;;24.98;15.85;;;11.40;99.90;;;;;;5073529;28;20029;-66
2022/10/16 03:54:12;;;;;;;23.92;15.40;;;11.40;99.90;;;;;;5073419;28;20073;-67
2022/10/16 03:56:38;;;;;;;24.88;15.75;;;11.40;99.90;;;;;;5071342;28;20051;-67
2022/10/16 03:59:04;;;;;;;14.02;8.23;;;11.40;99.90;;;;;;5073203;28;20629;-68
2022/10/16 04:01:30;;;;;;;10.55;6.43;;;11.40;99.90;;;;;;5073221;28;20024;-58
2022/10/16 04:03:55;;;;;;;7.05;4.82;;;11.50;99.90;;;;;;5072503;28;20017;-68
2022/10/16 04:06:21;;;;;;;7.65;4.22;;;11.50;99.90;;;;;;5073272;28;20028;-67
2022/10/16 04:08:46;;;;;;;9.85;5.63;;;11.50;99.90;;;;;;5072952;28;20020;-62
2022/10/16 04:11:12;;;;;;;9.30;5.75;;;11.60;99.90;;;;;;5072282;28;20112;-58
2022/10/16 04:13:38;;;;;;;14.05;8.52;;;11.60;99.90;;;;;;5072429;28;20089;-57
2022/10/16 04:16:04;;;;;;;14.70;8.55;;;11.50;99.90;;;;;;5072327;28;20111;-60
2022/10/16 04:18:29;;;;;;;11.82;7.60;;;11.50;99.90;;;;;;5072565;28;20548;-56
2022/10/16 04:20:55;;;;;;;11.25;6.75;;;11.50;99.90;;;;;;5071261;28;20049;-60
2022/10/16 04:23:22;;;;;;;10.35;6.35;;;11.50;99.90;;;;;;5070753;28;20027;-59
2022/10/16 04:25:48;;;;;;;7.65;4.75;;;11.60;99.90;;;;;;5072240;28;20028;-63
2022/10/16 04:28:14;;;;;;;7.85;4.22;;;11.60;99.90;;;;;;5072313;28;20082;-59
2022/10/16 04:30:39;;;;;;;5.93;3.70;;;11.60;99.90;;;;;;5070381;28;20028;-53
2022/10/16 04:33:05;;;;;;;6.63;4.15;;;11.70;99.90;;;;;;5071563;28;20492;-65
2022/10/16 04:35:31;;;;;;;8.65;5.43;;;11.70;99.90;;;;;;5071803;28;20417;-55
2022/10/16 04:37:59;;;;;;;12.27;6.50;;;11.80;99.90;;;;;;5071614;28;20055;-64
2022/10/16 04:40:25;;;;;;;8.95;5.05;;;11.80;99.90;;;;;;5072392;28;20091;-68
2022/10/16 04:42:51;;;;;;;5.90;3.72;;;11.90;99.90;;;;;;5071530;28;20111;-53
2022/10/16 04:45:16;;;;;;;4.80;3.05;;;11.90;99.90;;;;;;5071410;28;20476;-57
2022/10/16 04:47:42;;;;;;;12.30;4.72;;;12.00;99.90;;;;;;5071669;28;20025;-55
2022/10/16 04:50:08;;;;;;;10.27;5.60;;;12.00;99.90;;;;;;5071900;28;20774;-53
2022/10/16 04:52:33;;;;;;;8.23;3.60;;;12.00;99.90;;;;;;5071073;28;20373;-56
2022/10/16 04:55:01;;;;;;;5.57;2.90;;;12.00;99.90;;;;;;5071516;28;20024;-56
2022/10/16 04:57:28;;;;;;;5.30;2.63;;;12.00;99.90;;;;;;5071384;28;20021;-57
2022/10/16 04:59:54;;;;;;;6.10;2.88;;;12.10;99.90;;;;;;5071272;28;20477;-54
2022/10/16 05:02:19;;;;;;;4.07;2.58;;;12.00;99.90;;;;;;5071937;28;20025;-55
2022/10/16 05:04:45;;;;;;;5.72;2.97;;;12.00;99.90;;;;;;5071398;28;20047;-55
2022/10/16 05:07:10;;;;;;;8.02;3.03;;;11.90;99.90;;;;;;5071331;28;20082;-54
2022/10/16 05:09:36;;;;;;;6.97;3.88;;;11.90;99.90;;;;;;5071527;28;20043;-56
2022/10/16 05:12:03;;;;;;;4.90;2.80;;;11.90;99.90;;;;;;5071522;28;20024;-50
2022/10/16 05:14:29;;;;;;;4.60;2.97;;;11.80;99.90;;;;;;5071105;28;20397;-55
2022/10/16 05:16:54;;;;;;;4.57;2.60;;;11.80;99.90;;;;;;5071249;28;20031;-56
2022/10/16 05:19:20;;;;;;;4.90;2.38;;;11.80;99.90;;;;;;5070699;28;20039;-56
2022/10/16 05:21:45;;;;;;;5.28;2.88;;;11.80;99.90;;;;;;5070904;28;20135;-54
2022/10/16 05:24:11;;;;;;;6.32;2.95;;;11.80;99.90;;;;;;5071440;28;20044;-56
2022/10/16 05:26:37;;;;;;;5.88;2.58;;;11.80;99.90;;;;;;5070312;28;20516;-56
2022/10/16 05:29:02;;;;;;;7.30;2.65;;;11.70;99.90;;;;;;5071120;28;20020;-56
2022/10/16 05:31:28;;;;;;;5.72;3.00;;;11.70;99.90;;;;;;5071403;28;20048;-53
2022/10/16 05:34:01;;;;;;;5.68;2.75;;;11.70;99.90;;;;;;5070352;28;20028;-57
2022/10/16 05:36:27;;;;;;;5.32;2.80;;;11.70;99.90;;;;;;5071336;28;20070;-55
2022/10/16 05:38:53;;;;;;;6.20;2.80;;;11.60;99.90;;;;;;5070989;28;20436;-52
2022/10/16 05:41:25;;;;;;;5.40;3.28;;;11.60;99.90;;;;;;5070772;28;20021;-54
2022/10/16 05:43:51;;;;;;;4.72;3.00;;;11.60;99.90;;;;;;5070684;28;20435;-57
2022/10/16 05:46:17;;;;;;;5.72;2.70;;;11.60;99.90;;;;;;5071083;28;20089;-56
2022/10/16 05:48:43;;;;;;;4.22;2.60;;;11.60;99.90;;;;;;5070072;28;20021;-56
2022/10/16 05:51:11;;;;;;;6.65;2.50;;;11.50;99.90;;;;;;5071003;28;20048;-53
2022/10/16 05:53:38;;;;;;;5.72;2.50;;;11.50;99.90;;;;;;5070653;28;20524;-55
2022/10/16 05:56:05;;;;;;;3.97;2.63;;;11.50;99.90;;;;;;5070473;28;20033;-57
2022/10/16 05:58:35;;;;;;;4.32;2.70;;;11.50;99.90;;;;;;5071171;28;20473;-63
2022/10/16 06:01:06;;;;;;;5.22;2.72;;;11.50;99.90;;;;;;5071436;28;20024;-68
2022/10/16 06:03:33;;;;;;;4.60;2.97;;;11.50;99.90;;;;;;5070381;28;20021;-67
2022/10/16 06:05:59;;;;;;;5.53;2.53;;;11.50;99.90;;;;;;5071087;28;20496;-68
2022/10/16 06:08:25;;;;;;;4.97;2.75;;;11.40;99.90;;;;;;5071254;28;20493;-68
2022/10/16 06:11:03;;;;;;;4.05;2.65;;;11.50;99.90;;;;;;5070458;28;20028;-67
2022/10/16 06:13:29;;;;;;;8.40;3.70;;;11.40;99.90;;;;;;5071216;28;20020;-67
2022/10/16 06:15:58;;;;;;;6.70;3.70;;;11.40;99.90;;;;;;5070471;28;20380;-66
2022/10/16 06:18:23;;;;;;;6.57;3.10;;;11.50;99.90;;;;;;5071308;28;20035;-67
2022/10/16 06:20:49;;;;;;;9.55;3.95;;;11.40;99.90;;;;;;5070630;28;20850;-67
2022/10/16 06:23:14;;;;;;;9.38;5.18;;;11.50;99.90;;;;;;5070425;28;20024;-57
2022/10/16 06:25:40;;;;;;;13.68;7.50;;;11.50;99.90;;;;;;5070220;28;20564;-58
2022/10/16 06:28:06;;;;;;;16.48;10.27;;;11.50;99.90;;;;;;5070587;28;20380;-58
2022/10/16 06:30:31;;;;;;;19.35;12.60;;;11.50;99.90;;;;;;5068419;28;20033;-53
2022/10/16 06:32:57;;;;;;;17.80;10.40;;;11.50;99.90;;;;;;5070778;28;20063;-56
2022/10/16 06:35:23;;;;;;;21.15;12.88;;;11.70;99.90;;;;;;5069658;28;20100;-55
2022/10/16 06:37:49;;;;;;;20.20;12.32;;;11.70;99.90;;;;;;5069678;28;20488;-56
2022/10/16 06:40:14;;;;;;;17.17;10.95;;;11.80;99.90;;;;;;5070808;28;20020;-58
2022/10/16 06:42:41;;;;;;;8.43;4.47;;;11.90;99.90;;;;;;5070279;28;20020;-55
2022/10/16 06:45:07;;;;;;;5.57;3.40;;;12.00;99.90;;;;;;5068565;28;20396;-55
2022/10/16 06:47:32;;;;;;;8.23;4.53;;;12.10;99.90;;;;;;5070134;28;20082;-54
2022/10/16 06:49:58;;;;;;;5.65;3.50;;;12.20;99.90;;;;;;5070556;28;20415;-60
2022/10/16 06:52:24;;;;;;;5.80;3.47;;;12.20;99.90;;;;;;5069749;28;20430;-56
2022/10/16 06:54:50;;;;;;;6.72;3.85;;;12.30;99.90;;;;;;5069918;28;20025;-58
2022/10/16 06:57:16;;;;;;;8.07;4.10;;;12.40;99.90;;;;;;5071687;28;20025;-55
2022/10/16 06:59:41;;;;;;;7.10;3.72;;;12.40;99.90;;;;;;5073317;28;20070;-59
2022/10/16 07:02:08;;;;;;;8.85;4.30;;;12.50;99.90;;;;;;5074318;28;20329;-56
2022/10/16 07:04:35;;;;;;;5.63;3.00;;;12.50;99.90;;;;;;5073674;28;20039;-61
2022/10/16 07:07:01;;;;;;;6.57;3.45;;;12.50;99.90;;;;;;5073398;28;20385;-58
2022/10/16 07:09:28;;;;;;;5.72;3.17;;;12.60;99.90;;;;;;5073971;28;20027;-54
2022/10/16 07:11:53;;;;;;;6.82;3.15;;;12.60;99.90;;;;;;5073044;28;20059;-55
2022/10/16 07:14:21;;;;;;;6.32;2.90;;;12.70;99.90;;;;;;5073902;28;20412;-57
2022/10/16 07:16:47;;;;;;;6.20;3.17;;;12.80;99.90;;;;;;5073551;28;20651;-58
2022/10/16 07:19:14;;;;;;;6.85;3.42;;;12.80;99.90;;;;;;5073121;28;20048;-57
2022/10/16 07:21:40;;;;;;;6.60;3.00;;;12.90;99.90;;;;;;5073319;28;20044;-57
2022/10/16 07:24:11;;;;;;;7.10;3.78;;;12.90;99.90;;;;;;5073701;28;20020;-58
2022/10/16 07:26:38;;;;;;;9.05;3.28;;;13.00;99.90;;;;;;5072687;28;20031;-60
2022/10/16 07:29:06;;;;;;;6.07;2.80;;;13.00;99.90;;;;;;5073505;28;20062;-55
2022/10/16 07:31:33;;;;;;;6.57;3.45;;;13.00;99.90;;;;;;5073412;28;20488;-57
2022/10/16 07:33:59;;;;;;;5.60;2.80;;;13.00;99.90;;;;;;5071703;28;20023;-57
2022/10/16 07:36:25;;;;;;;6.90;3.45;;;13.10;99.90;;;;;;5073611;28;20104;-57
2022/10/16 07:38:50;;;;;;;7.15;2.88;;;13.10;99.90;;;;;;5072908;28;20056;-58
2022/10/16 07:41:18;;;;;;;6.55;3.25;;;13.10;99.90;;;;;;5072917;28;20024;-58
2022/10/16 07:43:48;;;;;;;6.47;2.92;;;13.10;99.90;;;;;;5073181;28;20031;-56
2022/10/16 07:46:14;;;;;;;7.55;2.90;;;13.00;99.90;;;;;;5073473;28;20025;-60
2022/10/16 07:48:40;;;;;;;4.10;2.60;;;13.00;99.90;;;;;;5072151;28;20356;-51
2022/10/16 07:51:07;;;;;;;6.35;3.10;;;13.10;99.90;;;;;;5073308;28;20528;-63
2022/10/16 07:53:33;;;;;;;6.15;2.65;;;13.30;99.90;;;;;;5072639;28;20476;-55
2022/10/16 07:56:00;;;;;;;5.57;2.75;;;13.40;99.90;;;;;;5072360;28;20405;-53
2022/10/16 07:58:27;;;;;;;7.60;2.90;;;13.50;99.90;;;;;;5072929;28;20099;-52
2022/10/16 08:00:53;;;;;;;11.48;3.83;;;13.50;99.90;;;;;;5071679;28;20055;-56
2022/10/16 08:03:18;;;;;;;6.55;3.20;;;13.60;99.90;;;;;;5072439;28;20048;-57
2022/10/16 08:05:44;;;;;;;4.85;3.35;;;13.60;99.90;;;;;;5073010;28;20043;-63
2022/10/16 08:08:14;;;;;;;5.10;2.67;;;13.60;99.90;;;;;;5070869;28;20031;-69
2022/10/16 08:10:40;;;;;;;5.22;3.08;;;13.60;99.90;;;;;;5072787;28;20108;-67
2022/10/16 08:13:06;;;;;;;5.93;2.78;;;13.60;99.90;;;;;;5073010;28;20100;-64
2022/10/16 08:15:32;;;;;;;4.78;3.03;;;13.60;99.90;;;;;;5071781;28;20059;-64
2022/10/16 08:18:05;;;;;;;5.10;2.65;;;13.60;99.90;;;;;;5072679;28;20048;-64
2022/10/16 08:20:32;;;;;;;6.18;3.28;;;13.70;99.90;;;;;;5072333;28;20052;-61
2022/10/16 08:22:58;;;;;;;4.53;2.72;;;13.70;99.90;;;;;;5072129;28;20016;-68
2022/10/16 08:25:24;;;;;;;3.88;2.47;;;13.80;99.90;;;;;;5071299;28;20492;-60
2022/10/16 08:27:51;;;;;;;4.57;2.90;;;14.00;99.90;;;;;;5072601;28;20027;-66
2022/10/16 08:30:18;;;;;;;5.05;2.83;;;14.10;99.90;;;;;;5070912;28;20468;-65
2022/10/16 08:32:44;;;;;;;6.50;2.63;;;14.30;99.90;;;;;;5071754;28;20097;-66
2022/10/16 08:35:11;;;;;;;7.75;3.30;;;14.30;99.90;;;;;;5072336;28;20119;-67
2022/10/16 08:37:37;;;;;;;5.65;3.00;;;14.40;99.90;;;;;;5071073;28;20021;-64
2022/10/16 08:40:05;;;;;;;7.15;2.92;;;14.40;99.90;;;;;;5072140;28;20060;-61
2022/10/16 08:42:34;;;;;;;6.05;2.72;;;14.40;99.90;;;;;;5104613;28;20507;-58
2022/10/16 08:45:19;;;;;;;5.15;3.63;;;14.30;99.90;;;;;;5071433;28;20106;-64
2022/10/16 08:48:03;;;;;;;7.53;3.40;;;14.30;99.90;;;;;;5071776;28;20435;-62
2022/10/16 08:50:31;;;;;;;6.47;3.13;;;14.30;99.90;;;;;;5071353;28;20493;-58
2022/10/16 08:52:57;;;;;;;5.97;2.95;;;14.30;99.90;;;;;;5071928;28;20020;-56
2022/10/16 08:55:42;;;;;;;7.20;3.15;;;14.30;99.90;;;;;;5072164;28;20037;-58
2022/10/16 08:58:16;;;;;;;6.50;3.70;;;14.40;99.90;;;;;;5071274;28;20017;-51
2022/10/16 09:00:46;;;;;;;5.45;3.20;;;14.40;99.90;;;;;;5071449;28;20173;-56
2022/10/16 09:03:22;;;;;;;4.75;2.92;;;14.40;99.90;;;;;;5071821;28;20021;-55
2022/10/16 09:06:15;;;;;;;4.60;3.00;;;14.40;99.90;;;;;;5070930;28;20044;-57
2022/10/16 09:08:54;;;;;;;6.25;2.85;;;14.50;99.90;;;;;;5071194;28;20437;-58
2022/10/16 09:11:45;;;;;;;5.13;2.78;;;14.50;99.90;;;;;;5070396;28;20031;-54
2022/10/16 09:14:36;;;;;;;4.90;3.10;;;14.50;99.90;;;;;;5071654;28;20478;-63
2022/10/16 09:17:12;;;;;;;4.40;2.40;;;14.60;99.90;;;;;;5071691;28;20060;-55
2022/10/16 09:19:46;;;;;;;4.93;2.30;;;14.60;99.90;;;;;;5069559;28;20017;-57
2022/10/16 09:22:15;;;;;;;4.82;2.83;;;14.60;99.90;;;;;;5071424;28;20023;-56
2022/10/16 09:24:42;;;;;;;6.03;3.00;;;14.60;99.90;;;;;;5070701;28;20458;-54
2022/10/16 09:27:13;;;;;;;7.90;2.90;;;14.60;99.90;;;;;;5089861;28;20024;-55
2022/10/16 09:29:39;;;;;;;7.03;2.60;;;14.60;99.90;;;;;;5090295;28;20024;-58
2022/10/16 09:32:15;;;;;;;6.88;2.60;;;14.60;99.90;;;;;;5091162;28;20012;-57
2022/10/16 09:34:59;;;;;;;7.90;2.25;;;14.70;99.90;;;;;;5089612;28;20337;-56
2022/10/16 09:37:25;;;;;;;4.85;2.88;;;14.80;99.90;;;;;;5091082;28;20020;-58
2022/10/16 09:39:54;;;;;;;4.20;2.25;;;14.80;99.90;;;;;;5090257;28;20023;-55
2022/10/16 09:42:24;;;;;;;4.53;2.28;;;14.80;99.90;;;;;;5090778;28;20567;-56
2022/10/16 09:44:51;;;;;;;6.30;1.88;;;14.90;99.90;;;;;;5090363;28;20561;-55
2022/10/16 09:47:24;;;;;;;5.85;2.30;;;14.90;99.90;;;;;;5088712;28;20086;-57
2022/10/16 09:49:59;;;;;;;7.72;2.28;;;15.00;99.90;;;;;;5089189;28;20023;-53
2022/10/16 09:52:25;;;;;;;9.32;2.30;;;15.00;99.90;;;;;;5091029;28;20070;-56
2022/10/16 09:54:53;;;;;;;6.20;2.00;;;15.10;99.90;;;;;;5089829;28;20032;-56
2022/10/16 09:57:20;;;;;;;6.00;2.15;;;15.20;99.90;;;;;;5090830;28;20435;-56
2022/10/16 09:59:54;;;;;;;5.78;1.90;;;15.10;99.90;;;;;;5089036;28;20027;-51
2022/10/16 10:02:34;;;;;;;7.25;2.47;;;15.20;99.90;;;;;;5089760;28;20091;-53
2022/10/16 10:05:00;;;;;;;4.43;1.65;;;15.20;99.90;;;;;;5090023;28;20024;-51
2022/10/16 10:07:33;;;;;;;7.07;1.95;;;15.30;99.90;;;;;;5089852;28;20510;-53
2022/10/16 10:09:59;;;;;;;6.38;2.05;;;15.40;99.90;;;;;;5089742;28;20045;-57
2022/10/16 10:12:26;;;;;;;6.22;1.85;;;15.40;99.90;;;;;;5090722;28;20020;-63
2022/10/16 10:14:54;;;;;;;9.88;2.20;;;15.50;99.90;;;;;;5089732;28;20016;-67
2022/10/16 10:17:23;;;;;;;6.07;2.00;;;15.50;99.90;;;;;;5090678;28;20077;-68
2022/10/16 10:19:52;;;;;;;5.72;1.70;;;15.50;99.90;;;;;;5088046;28;20067;-59
2022/10/16 10:22:45;;;;;;;7.30;1.77;;;15.60;99.90;;;;;;5089853;28;20142;-58
2022/10/16 10:25:11;;;;;;;3.72;1.63;;;15.70;99.90;;;;;;5090334;28;20484;-63
2022/10/16 10:28:03;;;;;;;5.82;1.67;;;15.70;99.90;;;;;;5089937;28;20020;-67
2022/10/16 10:30:55;;;;;;;5.57;2.03;;;15.80;99.90;;;;;;5088966;28;20028;-57
2022/10/16 10:33:33;;;;;;;5.60;1.60;;;16.00;99.90;;;;;;5093827;28;20103;-59
2022/10/16 10:36:13;;;;;;;5.15;1.30;;;16.10;99.90;;;;;;5093968;28;20020;-67
2022/10/16 10:38:49;;;;;;;7.30;1.47;;;16.20;99.90;;;;;;5094342;28;20490;-67
2022/10/16 10:41:18;;;;;;;7.28;1.67;;;16.40;99.90;;;;;;5094749;28;20467;-66
2022/10/16 10:43:50;;;;;;;5.07;1.80;;;16.40;99.30;;;;;;5093718;28;20062;-65
2022/10/16 10:46:32;;;;;;;5.43;1.65;;;16.50;99.10;;;;;;5094378;28;20556;-69
2022/10/16 10:49:36;;;;;;;7.15;1.77;;;16.50;99.20;;;;;;5094940;28;20052;-66
2022/10/16 10:52:28;;;;;;;7.13;1.50;;;16.60;98.90;;;;;;5093910;28;20039;-58
2022/10/16 10:55:13;;;;;;;8.10;1.58;;;16.60;99.10;;;;;;5093891;28;20065;-57
2022/10/16 10:58:20;;;;;;;7.53;1.75;;;16.80;98.90;;;;;;5093039;28;20099;-58
2022/10/16 11:01:03;;;;;;;4.97;1.30;;;16.80;97.70;;;;;;5066000;28;20036;-60
2022/10/16 11:03:52;;;;;;;5.13;1.50;;;16.90;97.60;;;;;;5093874;28;20027;-57
2022/10/16 11:06:24;;;;;;;4.10;1.13;;;16.90;96.50;;;;;;5093346;28;20028;-59
2022/10/16 11:09:00;;;;;;;4.03;1.35;;;17.00;96.40;;;;;;5093380;28;20027;-56
2022/10/16 11:11:30;;;;;;;8.48;1.30;;;17.10;95.80;;;;;;5093659;28;20032;-58
2022/10/16 11:14:02;;;;;;;5.70;1.65;;;17.20;95.90;;;;;;5094318;28;20020;-56
2022/10/16 11:16:43;;;;;;;8.38;1.30;;;17.20;95.80;;;;;;5095176;28;20036;-58
2022/10/16 11:19:14;;;;;;;3.55;1.40;;;17.20;95.90;;;;;;5086204;28;20078;-56
2022/10/16 11:21:44;;;;;;;;;;;17.30;95.50;;;;;;5090706;28;20043;-57
2022/10/16 11:24:21;;;;;;;8.77;1.67;;;17.30;95.30;;;;;;5093825;28;19908;-57
2022/10/16 11:26:49;;;;;;;8.93;1.58;;;17.40;95.20;;;;;;5092866;28;20035;-58
2022/10/16 11:29:28;;;;;;;4.60;1.17;;;17.40;94.70;;;;;;5092452;28;20552;-59
2022/10/16 11:31:59;;;;;;;6.40;1.75;;;17.50;94.40;;;;;;5092443;28;20581;-58
2022/10/16 11:34:37;;;;;;;5.45;1.83;;;17.60;93.40;;;;;;5092658;28;20031;-56
2022/10/16 11:37:14;;;;;;;8.77;1.98;;;17.70;92.50;;;;;;5094142;28;20051;-51
2022/10/16 11:39:42;;;;;;;8.80;1.50;;;17.60;91.90;;;;;;5093436;28;20427;-56
2022/10/16 11:42:13;;;;;;;4.45;1.50;;;17.50;91.60;;;;;;5094654;28;20050;-55
2022/10/16 11:44:57;;;;;;;;;;;17.50;91.40;;;;;;5094613;28;20408;-58
2022/10/16 11:47:37;;;;;;;7.10;1.10;;;17.40;91.00;;;;;;5092564;28;20243;-57
2022/10/16 11:50:27;;;;;;;10.17;1.87;;;17.20;91.60;;;;;;5093714;28;20031;-61
2022/10/16 11:53:13;;;;;;;8.98;1.92;;;17.20;91.50;;;;;;5094481;28;20028;-57
2022/10/16 11:55:41;;;;;;;6.13;1.30;;;17.10;92.00;;;;;;5093070;28;20020;-59
2022/10/16 11:58:34;;;;;;;3.50;1.23;;;17.10;92.40;;;;;;5093621;28;20020;-57
2022/10/16 12:01:00;;;;;;;5.97;1.13;;;17.10;92.70;;;;;;5093590;28;20036;-59
2022/10/16 12:03:50;;;;;;;5.60;1.45;;;17.00;92.80;;;;;;5094438;28;20051;-57
2022/10/16 12:06:23;;;;;;;6.85;1.30;;;17.10;92.10;;;;;;5093819;28;20075;-54
2022/10/16 12:08:49;;;;;;;6.32;1.55;;;17.10;92.40;;;;;;5092524;28;20024;-59
2022/10/16 12:11:27;;;;;;;7.72;1.60;;;17.10;91.70;;;;;;5093827;28;20080;-52
2022/10/16 12:14:18;;;;;;;8.40;1.55;;;17.10;91.20;;;;;;5095402;28;20035;-56
2022/10/16 12:17:19;;;;;;;7.63;1.77;;;17.10;91.20;;;;;;5094275;28;20020;-64
2022/10/16 12:20:00;;;;;;;4.60;1.05;;;17.10;91.00;;;;;;5093751;28;20145;-68
2022/10/16 12:22:28;;;;;;;9.10;1.83;;;17.10;91.30;;;;;;5093235;28;20016;-65
2022/10/16 12:24:54;;;;;;;4.72;1.35;;;17.10;91.30;;;;;;5091477;28;20054;-60
2022/10/16 12:27:31;;;;;;;7.05;1.63;;;17.10;91.60;;;;;;5087094;28;20440;-60
2022/10/16 12:30:02;;;;;;;5.45;1.10;;;17.10;91.40;;;;;;5090924;28;20028;-55
2022/10/16 12:32:30;;;;;;;7.85;1.20;;;17.10;90.70;;;;;;5092733;28;20061;-68
2022/10/16 12:34:57;;;;;;;5.47;1.30;;;17.20;90.60;;;;;;5093511;28;20024;-67
2022/10/16 12:37:36;;;;;;;3.28;1.20;;;17.40;90.40;;;;;;5092573;28;20441;-65
2022/10/16 12:40:14;;;;;;;3.00;1.10;;;17.50;90.40;;;;;;5092610;28;20111;-64
2022/10/16 12:42:39;;;;;;;2.72;0.90;;;17.50;89.80;;;;;;5091657;28;20020;-65
2022/10/16 12:45:27;;;;;;;5.18;1.15;;;17.50;88.80;;;;;;5092740;28;20467;-65
2022/10/16 12:47:54;;;;;;;6.35;1.35;;;17.50;88.30;;;;;;5092415;28;20107;-66
2022/10/16 12:50:32;;;;;;;7.97;1.77;;;17.40;88.40;;;;;;5090775;28;20020;-66
2022/10/16 12:52:59;;;;;;;5.53;1.33;;;17.40;89.30;;;;;;5092568;28;20032;-55
2022/10/16 12:55:31;;;;;;;3.45;1.02;;;17.40;88.90;;;;;;5092245;28;20020;-63
2022/10/16 12:58:02;;;;;;;4.05;1.27;;;17.40;89.40;;;;;;5091160;28;20365;-66
2022/10/16 13:01:05;;;;;;;5.15;1.80;;;17.40;89.40;;;;;;5092808;28;20028;-65